createdAt,value
2023-05-10T00:03:40.407Z,101286.49
2023-05-10T00:06:09.299Z,101289.77
2023-05-10T00:08:37.459Z,101292.90
2023-05-10T00:11:05.734Z,101299.59
2023-05-10T00:13:33.941Z,101304.08
2023-05-10T00:16:02.189Z,101304.99
2023-05-10T00:18:30.725Z,101302.31
2023-05-10T00:20:58.769Z,101301.08
2023-05-10T00:23:27.042Z,101300.90
2023-05-10T00:25:55.238Z,101294.79
2023-05-10T00:28:24.376Z,101291.73
2023-05-10T00:30:52.647Z,101295.54
2023-05-10T00:33:20.865Z,101295.59
2023-05-10T00:35:48.952Z,101295.96
2023-05-10T00:38:17.005Z,101294.54
2023-05-10T00:40:45.188Z,101299.45
2023-05-10T00:43:13.498Z,101295.71
2023-05-10T00:45:42.498Z,101296.13
2023-05-10T00:48:10.680Z,101292.56
2023-05-10T00:50:39.148Z,101286.84
2023-05-10T00:53:08.295Z,101283.80
2023-05-10T00:55:36.764Z,101284.52
2023-05-10T00:58:05.849Z,101283.81
2023-05-10T01:00:34.886Z,101286.52
2023-05-10T01:03:04.280Z,101284.02
2023-05-10T01:05:32.585Z,101283.15
2023-05-10T01:08:00.673Z,101285.86
2023-05-10T01:10:28.797Z,101284.60
2023-05-10T01:12:57.003Z,101290.14
2023-05-10T01:15:25.396Z,101298.73
2023-05-10T01:17:54.346Z,101300.35
2023-05-10T01:20:22.622Z,101299.29
2023-05-10T01:23:28.702Z,101294.44
2023-05-10T01:26:16.062Z,101296.39
2023-05-10T01:28:52.051Z,101299.59
2023-05-10T01:32:17.584Z,101299.77
2023-05-10T01:35:01.012Z,101300.26
2023-05-10T01:37:57.574Z,101303.27
2023-05-10T01:40:39.432Z,101299.30
2023-05-10T01:43:18.835Z,101298.36
2023-05-10T01:46:04.908Z,101299.07
2023-05-10T01:48:34.163Z,101301.58
2023-05-10T01:51:03.154Z,101294.58
2023-05-10T01:53:34.631Z,101289.89
2023-05-10T01:56:04.081Z,101289.51
2023-05-10T01:58:35.285Z,101290.92
2023-05-10T02:01:05.550Z,101288.59
2023-05-10T02:03:37.004Z,101291.83
2023-05-10T02:06:07.186Z,101288.24
2023-05-10T02:08:38.064Z,101295.24
2023-05-10T02:11:07.023Z,101302.81
2023-05-10T02:13:38.545Z,101307.14
2023-05-10T02:16:08.556Z,101300.70
2023-05-10T02:18:37.359Z,101302.68
2023-05-10T02:21:05.970Z,101298.25
2023-05-10T02:23:35.693Z,101298.08
2023-05-10T02:26:06.958Z,101293.59
2023-05-10T02:28:37.894Z,101290.90
2023-05-10T02:31:07.768Z,101292.70
2023-05-10T02:33:39.703Z,101293.77
2023-05-10T02:36:10.047Z,101293.05
2023-05-10T02:38:38.813Z,101288.92
2023-05-10T02:41:10.932Z,101290.52
2023-05-10T02:43:41.701Z,101284.04
2023-05-10T02:46:10.152Z,101283.30
2023-05-10T02:48:38.475Z,101283.64
2023-05-10T02:51:09.243Z,101281.67
2023-05-10T02:53:42.619Z,101282.95
2023-05-10T02:56:16.365Z,101284.58
2023-05-10T02:58:44.585Z,101280.64
2023-05-10T03:01:12.904Z,101278.33
2023-05-10T03:03:41.251Z,101276.58
2023-05-10T03:06:09.913Z,101270.86
2023-05-10T03:08:38.472Z,101269.65
2023-05-10T03:11:09.505Z,101269.31
2023-05-10T03:13:46.764Z,101267.52
2023-05-10T03:16:26.805Z,101269.32
2023-05-10T03:19:07.852Z,101263.58
2023-05-10T03:21:39.885Z,101266.47
2023-05-10T03:24:12.873Z,101269.89
2023-05-10T03:26:44.698Z,101266.45
2023-05-10T03:29:15.249Z,101265.91
2023-05-10T03:31:43.703Z,101265.02
2023-05-10T03:34:11.894Z,101260.20
2023-05-10T03:36:40.384Z,101259.30
2023-05-10T03:39:08.465Z,101266.10
2023-05-10T03:41:36.644Z,101267.35
2023-05-10T03:44:04.940Z,101265.03
2023-05-10T03:46:33.129Z,101266.24
2023-05-10T03:49:02.031Z,101260.30
2023-05-10T03:51:30.916Z,101264.23
2023-05-10T03:53:59.159Z,101269.23
2023-05-10T03:56:27.214Z,101272.80
2023-05-10T03:58:55.271Z,101277.10
2023-05-10T04:01:23.861Z,101281.02
2023-05-10T04:03:52.677Z,101274.55
2023-05-10T04:06:21.090Z,101279.39
2023-05-10T04:08:49.324Z,101283.33
2023-05-10T04:11:17.735Z,101286.57
2023-05-10T04:13:45.795Z,101289.98
2023-05-10T04:16:14.161Z,101291.42
2023-05-10T04:18:42.526Z,101293.06
2023-05-10T04:21:14.283Z,101295.05
2023-05-10T04:23:42.918Z,101294.52
2023-05-10T04:26:11.084Z,101294.90
2023-05-10T04:28:39.635Z,101292.36
2023-05-10T04:31:10.914Z,101286.98
2023-05-10T04:33:39.163Z,101287.53
2023-05-10T04:36:07.389Z,101285.90
2023-05-10T04:38:36.380Z,101289.30
2023-05-10T04:41:09.206Z,101285.71
2023-05-10T04:43:39.435Z,101282.13
2023-05-10T04:46:08.340Z,101285.70
2023-05-10T04:48:36.881Z,101290.56
2023-05-10T04:51:05.266Z,101292.89
2023-05-10T04:53:33.999Z,101295.77
2023-05-10T04:56:02.124Z,101300.06
2023-05-10T04:58:30.498Z,101310.48
2023-05-10T05:00:58.565Z,101314.44
2023-05-10T05:03:27.269Z,101317.31
2023-05-10T05:05:57.229Z,101324.48
2023-05-10T05:08:25.457Z,101330.05
2023-05-10T05:10:53.661Z,101336.15
2023-05-10T05:13:22.433Z,101344.40
2023-05-10T05:15:50.743Z,101353.02
2023-05-10T05:18:18.964Z,101354.81
2023-05-10T05:20:47.198Z,101366.67
2023-05-10T05:23:15.660Z,101365.23
2023-05-10T05:25:43.782Z,101367.90
2023-05-10T05:28:12.315Z,101362.14
2023-05-10T05:30:40.421Z,101359.80
2023-05-10T05:33:08.559Z,101363.93
2023-05-10T05:35:36.796Z,101373.27
2023-05-10T05:38:04.935Z,101383.86
2023-05-10T05:40:33.167Z,101383.30
2023-05-10T05:43:01.543Z,101391.36
2023-05-10T05:45:30.050Z,101387.76
2023-05-10T05:47:58.440Z,101384.50
2023-05-10T05:50:26.680Z,101382.87
2023-05-10T05:52:54.822Z,101380.17
2023-05-10T05:55:23.064Z,101382.50
2023-05-10T05:57:51.422Z,101389.00
2023-05-10T06:00:22.745Z,101391.72
2023-05-10T06:02:51.056Z,101396.05
2023-05-10T06:05:19.555Z,101399.31
2023-05-10T06:07:47.768Z,101398.25
2023-05-10T06:10:16.159Z,101396.83
2023-05-10T06:12:45.076Z,101395.96
2023-05-10T06:15:13.509Z,101397.39
2023-05-10T06:17:42.362Z,101396.11
2023-05-10T06:20:10.995Z,101398.95
2023-05-10T06:22:39.211Z,101401.08
2023-05-10T06:25:08.119Z,101399.45
2023-05-10T06:27:36.250Z,101399.63
2023-05-10T06:30:12.867Z,101395.84
2023-05-10T06:32:42.814Z,101397.05
2023-05-10T06:35:11.166Z,101397.56
2023-05-10T06:37:39.414Z,101402.55
2023-05-10T06:40:08.558Z,101403.77
2023-05-10T06:42:36.874Z,101405.20
2023-05-10T06:45:05.700Z,101405.88
2023-05-10T06:47:34.730Z,101407.65
2023-05-10T06:50:04.711Z,101409.23
2023-05-10T06:52:33.165Z,101415.49
2023-05-10T06:55:01.869Z,101415.42
2023-05-10T06:57:31.779Z,101417.67
2023-05-10T07:00:00.922Z,101417.63
2023-05-10T07:02:29.398Z,101425.30
2023-05-10T07:05:00.846Z,101430.80
2023-05-10T07:07:30.885Z,101432.56
2023-05-10T07:09:59.608Z,101430.00
2023-05-10T07:12:28.036Z,101436.24
2023-05-10T07:14:56.233Z,101433.36
2023-05-10T07:17:24.420Z,101430.28
2023-05-10T07:19:52.968Z,101436.34
2023-05-10T07:22:21.094Z,101440.08
2023-05-10T07:24:49.222Z,101449.36
2023-05-10T07:27:17.339Z,101454.36
2023-05-10T07:29:46.087Z,101455.06
2023-05-10T07:32:14.392Z,101450.08
2023-05-10T07:34:44.741Z,101450.48
2023-05-10T07:37:12.920Z,101452.48
2023-05-10T07:39:41.563Z,101451.52
2023-05-10T07:42:09.659Z,101456.52
2023-05-10T07:44:38.322Z,101463.86
2023-05-10T07:47:07.571Z,101468.01
2023-05-10T07:49:35.748Z,101464.62
2023-05-10T07:52:04.912Z,101469.71
2023-05-10T07:54:33.107Z,101467.57
2023-05-10T07:57:02.004Z,101462.85
2023-05-10T07:59:30.164Z,101466.70
2023-05-10T08:01:59.665Z,101468.59
2023-05-10T08:04:28.333Z,101469.63
2023-05-10T08:06:57.445Z,101470.84
2023-05-10T08:09:25.610Z,101469.25
2023-05-10T08:11:54.645Z,101472.95
2023-05-10T08:14:23.360Z,101473.79
2023-05-10T08:16:51.543Z,101473.88
2023-05-10T08:19:19.853Z,101472.76
2023-05-10T08:21:48.696Z,101468.85
2023-05-10T08:24:16.878Z,101475.59
2023-05-10T08:26:45.185Z,101475.05
2023-05-10T08:29:13.346Z,101474.88
2023-05-10T08:31:42.789Z,101481.60
2023-05-10T08:34:11.607Z,101483.20
2023-05-10T08:36:41.253Z,101481.73
2023-05-10T08:39:22.949Z,101481.33
2023-05-10T08:42:05.403Z,101482.88
2023-05-10T08:44:35.362Z,101484.01
2023-05-10T08:47:07.161Z,101479.83
2023-05-10T08:49:38.063Z,101478.23
2023-05-10T08:52:08.516Z,101477.35
2023-05-10T08:54:37.899Z,101478.91
2023-05-10T08:57:06.882Z,101477.77
2023-05-10T08:59:36.570Z,101475.23
2023-05-10T09:02:06.550Z,101476.25
2023-05-10T09:04:42.046Z,101473.66
2023-05-10T09:07:13.605Z,101474.19
2023-05-10T09:09:46.495Z,101471.40
2023-05-10T09:12:14.779Z,101474.03
2023-05-10T09:14:44.743Z,101476.77
2023-05-10T09:17:14.144Z,101474.88
2023-05-10T09:19:42.441Z,101470.83
2023-05-10T09:22:11.146Z,101471.58
2023-05-10T09:24:39.278Z,101468.73
2023-05-10T09:27:07.436Z,101467.30
2023-05-10T09:29:43.948Z,101460.08
2023-05-10T09:32:13.915Z,101466.13
2023-05-10T09:34:42.198Z,101470.61
2023-05-10T09:37:11.477Z,101471.15
2023-05-10T09:39:40.254Z,101470.81
2023-05-10T09:42:10.513Z,101470.53
2023-05-10T09:44:39.117Z,101465.76
2023-05-10T09:47:07.713Z,101464.38
2023-05-10T09:49:36.873Z,101466.41
2023-05-10T09:52:08.483Z,101462.60
2023-05-10T09:54:37.475Z,101462.45
2023-05-10T09:57:05.781Z,101462.15
2023-05-10T09:59:35.434Z,101457.17
2023-05-10T10:02:04.234Z,101457.79
2023-05-10T10:04:33.274Z,101454.77
2023-05-10T10:07:05.925Z,101451.71
2023-05-10T10:09:35.884Z,101449.83
2023-05-10T10:12:04.818Z,101447.46
2023-05-10T10:14:36.941Z,101449.19
2023-05-10T10:17:08.624Z,101448.77
2023-05-10T10:19:38.491Z,101449.80
2023-05-10T10:22:07.178Z,101451.77
2023-05-10T10:24:35.533Z,101447.48
2023-05-10T10:27:29.209Z,101451.60
2023-05-10T10:30:32.749Z,101455.59
2023-05-10T10:33:27.392Z,101450.86
2023-05-10T10:35:59.218Z,101451.98
2023-05-10T10:38:57.394Z,101444.88
2023-05-10T10:41:42.165Z,101446.75
2023-05-10T10:44:27.379Z,101446.41
2023-05-10T10:47:14.385Z,101443.89
2023-05-10T10:49:49.931Z,101451.34
2023-05-10T10:52:24.243Z,101452.73
2023-05-10T10:55:20.020Z,101447.51
2023-05-10T10:57:54.479Z,101440.65
2023-05-10T11:00:27.570Z,101437.02
2023-05-10T11:03:08.578Z,101438.19
2023-05-10T11:05:40.457Z,101434.36
2023-05-10T11:08:11.150Z,101435.61
2023-05-10T11:10:44.992Z,101445.55
2023-05-10T11:13:13.891Z,101435.18
2023-05-10T11:15:49.938Z,101431.68
2023-05-10T11:18:20.169Z,101428.29
2023-05-10T11:20:53.998Z,101418.52
2023-05-10T11:23:23.647Z,101418.37
2023-05-10T11:25:51.659Z,101418.98
2023-05-10T11:28:20.873Z,101415.53
2023-05-10T11:30:49.868Z,101409.98
2023-05-10T11:33:19.809Z,101404.98
2023-05-10T11:35:48.692Z,101405.59
2023-05-10T11:38:17.083Z,101405.55
2023-05-10T11:40:45.337Z,101402.98
2023-05-10T11:43:13.808Z,101408.64
2023-05-10T11:45:42.929Z,101405.73
2023-05-10T11:48:11.189Z,101403.16
2023-05-10T11:50:39.616Z,101402.16
2023-05-10T11:53:07.779Z,101402.30
2023-05-10T11:55:36.422Z,101397.02
2023-05-10T11:58:05.177Z,101396.52
2023-05-10T12:00:33.722Z,101395.16
2023-05-10T12:03:02.930Z,101386.68
2023-05-10T12:05:36.938Z,101387.36
2023-05-10T12:08:16.517Z,101392.45
2023-05-10T12:10:45.562Z,101383.08
2023-05-10T12:13:14.479Z,101385.58
2023-05-10T12:15:44.008Z,101387.16
2023-05-10T12:18:16.107Z,101390.94
2023-05-10T12:20:46.995Z,101388.33
2023-05-10T12:23:16.713Z,101377.09
2023-05-10T12:25:47.532Z,101378.16
2023-05-10T12:28:20.876Z,101380.34
2023-05-10T12:30:49.491Z,101371.17
2023-05-10T12:33:18.495Z,101373.20
2023-05-10T12:35:50.275Z,101372.34
2023-05-10T12:38:47.264Z,101365.73
2023-05-10T12:41:18.381Z,101365.98
2023-05-10T12:43:46.898Z,101365.83
2023-05-10T12:46:17.807Z,101368.96
2023-05-10T12:48:47.607Z,101368.56
2023-05-10T12:51:16.215Z,101363.80
2023-05-10T12:53:46.088Z,101365.70
2023-05-10T12:56:15.577Z,101369.75
2023-05-10T12:58:43.613Z,101369.71
2023-05-10T13:01:12.616Z,101366.11
2023-05-10T13:03:41.810Z,101367.73
2023-05-10T13:06:10.532Z,101362.70
2023-05-10T13:08:39.217Z,101364.44
2023-05-10T13:11:07.621Z,101363.87
2023-05-10T13:13:36.227Z,101352.05
2023-05-10T13:16:04.568Z,101350.41
2023-05-10T13:18:32.776Z,101355.36
2023-05-10T13:21:01.529Z,101352.48
2023-05-10T13:23:29.820Z,101345.85
2023-05-10T13:25:58.606Z,101347.20
2023-05-10T13:28:26.817Z,101345.27
2023-05-10T13:30:54.807Z,101353.05
2023-05-10T13:33:23.170Z,101357.17
2023-05-10T13:35:54.350Z,101355.46
2023-05-10T13:38:23.965Z,101341.88
2023-05-10T13:40:52.018Z,101338.52
2023-05-10T13:43:20.541Z,101336.36
2023-05-10T13:45:48.939Z,101328.19
2023-05-10T13:48:16.995Z,101329.85
2023-05-10T13:50:45.091Z,101333.43
2023-05-10T13:53:13.626Z,101326.96
2023-05-10T13:55:41.746Z,101326.73
2023-05-10T13:58:09.758Z,101321.98
2023-05-10T14:00:38.168Z,101315.00
2023-05-10T14:03:06.892Z,101316.10
2023-05-10T14:05:35.001Z,101316.86
2023-05-10T14:08:03.436Z,101316.98
2023-05-10T14:10:31.582Z,101307.50
2023-05-10T14:13:04.141Z,101311.55
2023-05-10T14:15:32.628Z,101315.39
2023-05-10T14:18:00.773Z,101316.23
2023-05-10T14:20:29.118Z,101312.67
2023-05-10T14:22:57.416Z,101301.34
2023-05-10T14:25:25.768Z,101296.02
2023-05-10T14:27:54.188Z,101295.33
2023-05-10T14:30:22.777Z,101293.69
2023-05-10T14:32:50.894Z,101284.71
2023-05-10T14:35:20.022Z,101272.83
2023-05-10T14:37:48.873Z,101275.25
2023-05-10T14:40:17.231Z,101277.95
2023-05-10T14:42:45.534Z,101279.64
2023-05-10T14:45:14.152Z,101283.64
2023-05-10T14:47:42.309Z,101279.89
2023-05-10T14:50:14.743Z,101279.91
2023-05-10T14:52:47.133Z,101278.70
2023-05-10T14:55:16.567Z,101271.93
2023-05-10T14:57:45.561Z,101260.34
2023-05-10T15:00:14.542Z,101258.91
2023-05-10T15:02:43.494Z,101264.48
2023-05-10T15:05:13.309Z,101263.40
2023-05-10T15:07:42.985Z,101264.23
2023-05-10T15:10:11.754Z,101261.67
2023-05-10T15:12:40.765Z,101253.31
2023-05-10T15:15:09.415Z,101259.55
2023-05-10T15:17:37.559Z,101259.05
2023-05-10T15:20:06.545Z,101256.68
2023-05-10T15:22:35.190Z,101257.05
2023-05-10T15:25:03.913Z,101255.95
2023-05-10T15:27:31.968Z,101251.52
2023-05-10T15:30:01.274Z,101248.81
2023-05-10T15:32:29.506Z,101250.89
2023-05-10T15:34:57.624Z,101242.95
2023-05-10T15:37:25.701Z,101244.98
2023-05-10T15:39:55.800Z,101245.23
2023-05-10T15:42:25.042Z,101242.73
2023-05-10T15:44:53.452Z,101238.88
2023-05-10T15:47:21.608Z,101243.52
2023-05-10T15:49:49.747Z,101245.18
2023-05-10T15:52:17.814Z,101241.73
2023-05-10T15:54:46.830Z,101235.21
2023-05-10T15:57:15.110Z,101237.06
2023-05-10T15:59:43.126Z,101240.84
2023-05-10T16:02:11.379Z,101238.27
2023-05-10T16:04:40.306Z,101243.31
2023-05-10T16:07:08.556Z,101244.64
2023-05-10T16:09:37.919Z,101240.04
2023-05-10T16:12:06.737Z,101237.42
2023-05-10T16:14:35.286Z,101238.48
2023-05-10T16:17:06.811Z,101232.87
2023-05-10T16:19:35.575Z,101234.02
2023-05-10T16:22:05.543Z,101233.94
2023-05-10T16:24:34.792Z,101232.52
2023-05-10T16:27:05.724Z,101229.52
2023-05-10T16:29:33.895Z,101237.37
2023-05-10T16:32:02.329Z,101236.21
2023-05-10T16:34:31.291Z,101234.11
2023-05-10T16:36:59.950Z,101228.67
2023-05-10T16:39:29.236Z,101227.75
2023-05-10T16:41:58.402Z,101226.84
2023-05-10T16:44:27.265Z,101228.01
2023-05-10T16:46:56.056Z,101231.27
2023-05-10T16:49:26.117Z,101230.52
2023-05-10T16:51:55.415Z,101223.70
2023-05-10T16:54:23.563Z,101227.86
2023-05-10T16:56:52.567Z,101225.20
2023-05-10T16:59:21.124Z,101222.43
2023-05-10T17:01:49.347Z,101221.34
2023-05-10T17:04:17.891Z,101221.77
2023-05-10T17:06:46.121Z,101227.95
2023-05-10T17:09:15.484Z,101227.98
2023-05-10T17:11:43.803Z,101227.86
2023-05-10T17:14:12.369Z,101229.18
2023-05-10T17:16:42.302Z,101231.86
2023-05-10T17:19:11.272Z,101234.11
2023-05-10T17:21:40.724Z,101234.75
2023-05-10T17:24:09.060Z,101229.35
2023-05-10T17:26:37.671Z,101230.83
2023-05-10T17:29:06.538Z,101230.09
2023-05-10T17:31:34.787Z,101227.96
2023-05-10T17:34:05.478Z,101230.92
2023-05-10T17:36:34.074Z,101227.27
2023-05-10T17:39:02.352Z,101227.54
2023-05-10T17:41:30.822Z,101220.95
2023-05-10T17:43:59.361Z,101224.73
2023-05-10T17:46:27.707Z,101222.13
2023-05-10T17:48:56.430Z,101225.58
2023-05-10T17:51:24.745Z,101225.82
2023-05-10T17:53:53.038Z,101230.38
2023-05-10T17:56:21.589Z,101227.20
2023-05-10T17:58:49.642Z,101233.25
2023-05-10T18:01:17.819Z,101238.73
2023-05-10T18:03:46.100Z,101239.36
2023-05-10T18:06:14.642Z,101238.78
2023-05-10T18:08:43.341Z,101240.22
2023-05-10T18:11:11.827Z,101240.10
2023-05-10T18:13:40.167Z,101241.60
2023-05-10T18:16:08.362Z,101244.91
2023-05-10T18:18:36.659Z,101242.47
2023-05-10T18:21:04.778Z,101242.45
2023-05-10T18:23:33.692Z,101245.84
2023-05-10T18:26:02.613Z,101247.83
2023-05-10T18:28:31.180Z,101247.31
2023-05-10T18:30:59.497Z,101245.33
2023-05-10T18:33:28.180Z,101246.81
2023-05-10T18:35:56.504Z,101240.16
2023-05-10T18:38:25.806Z,101242.18
2023-05-10T18:40:53.950Z,101245.55
2023-05-10T18:43:22.541Z,101247.94
2023-05-10T18:45:51.282Z,101248.15
2023-05-10T18:48:19.969Z,101252.85
2023-05-10T18:50:48.201Z,101252.55
2023-05-10T18:53:17.629Z,101256.21
2023-05-10T18:55:46.694Z,101254.71
2023-05-10T18:58:15.960Z,101257.29
2023-05-10T19:00:45.057Z,101256.46
2023-05-10T19:03:14.477Z,101255.80
2023-05-10T19:05:43.739Z,101259.21
2023-05-10T19:08:11.847Z,101261.14
2023-05-10T19:10:40.264Z,101264.39
2023-05-10T19:13:09.118Z,101262.92
2023-05-10T19:15:38.856Z,101264.38
2023-05-10T19:18:09.674Z,101261.05
2023-05-10T19:20:40.874Z,101264.34
2023-05-10T19:23:11.449Z,101260.21
2023-05-10T19:25:39.605Z,101258.78
2023-05-10T19:28:08.920Z,101258.51
2023-05-10T19:30:38.118Z,101264.30
2023-05-10T19:33:06.662Z,101265.77
2023-05-10T19:35:34.813Z,101265.83
2023-05-10T19:38:03.472Z,101273.65
2023-05-10T19:40:32.219Z,101278.52
2023-05-10T19:43:02.599Z,101282.27
2023-05-10T19:45:31.249Z,101285.91
2023-05-10T19:48:02.474Z,101281.05
2023-05-10T19:50:30.730Z,101285.97
2023-05-10T19:52:59.717Z,101288.60
2023-05-10T19:55:30.556Z,101291.55
2023-05-10T19:57:59.836Z,101294.30
2023-05-10T20:00:28.745Z,101293.63
2023-05-10T20:02:56.791Z,101295.65
2023-05-10T20:05:25.250Z,101297.51
2023-05-10T20:07:54.912Z,101298.23
2023-05-10T20:10:25.189Z,101304.65
2023-05-10T20:12:54.640Z,101303.00
2023-05-10T20:15:23.693Z,101305.16
2023-05-10T20:17:52.493Z,101312.14
2023-05-10T20:20:21.676Z,101319.23
2023-05-10T20:22:51.667Z,101323.33
2023-05-10T20:25:20.242Z,101331.03
2023-05-10T20:27:48.904Z,101333.15
2023-05-10T20:30:17.160Z,101334.14
2023-05-10T20:32:45.954Z,101332.83
2023-05-10T20:35:14.144Z,101331.85
2023-05-10T20:37:42.626Z,101333.48
2023-05-10T20:40:11.276Z,101339.91
2023-05-10T20:42:39.499Z,101350.09
2023-05-10T20:45:08.170Z,101358.45
2023-05-10T20:47:36.404Z,101355.90
2023-05-10T20:50:05.281Z,101355.92
2023-05-10T20:52:33.326Z,101358.27
2023-05-10T20:55:01.974Z,101355.45
2023-05-10T20:57:30.274Z,101355.96
2023-05-10T20:59:58.360Z,101358.88
2023-05-10T21:02:26.566Z,101365.40
2023-05-10T21:04:57.125Z,101373.34
2023-05-10T21:07:26.671Z,101375.76
2023-05-10T21:09:54.773Z,101375.80
2023-05-10T21:12:23.828Z,101375.14
2023-05-10T21:14:52.539Z,101370.18
2023-05-10T21:17:21.266Z,101373.45
2023-05-10T21:19:49.493Z,101372.77
2023-05-10T21:22:18.338Z,101368.52
2023-05-10T21:24:47.215Z,101367.49
2023-05-10T21:27:15.467Z,101366.80
2023-05-10T21:29:43.752Z,101365.01
2023-05-10T21:32:12.321Z,101364.46
2023-05-10T21:34:40.534Z,101369.15
2023-05-10T21:37:08.523Z,101372.17
2023-05-10T21:39:38.110Z,101374.84
2023-05-10T21:42:06.139Z,101374.30
2023-05-10T21:44:34.180Z,101373.40
2023-05-10T21:47:02.734Z,101368.73
2023-05-10T21:49:31.156Z,101368.20
2023-05-10T21:51:59.543Z,101368.58
2023-05-10T21:54:28.507Z,101364.63
2023-05-10T21:56:58.260Z,101358.52
2023-05-10T21:59:26.761Z,101364.13
2023-05-10T22:01:55.322Z,101362.89
2023-05-10T22:04:23.823Z,101362.91
2023-05-10T22:06:51.957Z,101363.30
2023-05-10T22:09:20.201Z,101362.45
2023-05-10T22:11:48.204Z,101362.98
2023-05-10T22:14:16.467Z,101359.54
2023-05-10T22:16:44.809Z,101362.94
2023-05-10T22:19:12.972Z,101359.70
2023-05-10T22:21:41.606Z,101359.11
2023-05-10T22:24:10.291Z,101352.09
2023-05-10T22:26:40.443Z,101353.70
2023-05-10T22:29:08.535Z,101355.88
2023-05-10T22:31:37.236Z,101348.58
2023-05-10T22:34:05.932Z,101343.21
2023-05-10T22:36:34.155Z,101341.31
2023-05-10T22:39:02.349Z,101339.05
2023-05-10T22:41:30.336Z,101341.38
2023-05-10T22:43:58.625Z,101349.64
2023-05-10T22:46:26.906Z,101351.05
2023-05-10T22:48:55.685Z,101349.42
2023-05-10T22:51:23.815Z,101352.09
2023-05-10T22:53:52.023Z,101352.25
2023-05-10T22:56:21.478Z,101355.49
2023-05-10T22:58:50.361Z,101355.89
2023-05-10T23:01:18.492Z,101357.70
2023-05-10T23:03:46.740Z,101356.66
2023-05-10T23:06:16.600Z,101355.80
2023-05-10T23:08:44.729Z,101354.58
2023-05-10T23:11:12.800Z,101354.23
2023-05-10T23:13:41.386Z,101354.04
2023-05-10T23:16:10.309Z,101354.41
2023-05-10T23:18:38.558Z,101353.52
2023-05-10T23:21:06.628Z,101349.77
2023-05-10T23:23:35.313Z,101347.63
2023-05-10T23:26:03.344Z,101350.31
2023-05-10T23:28:32.247Z,101350.70
2023-05-10T23:31:01.059Z,101351.30
2023-05-10T23:33:29.819Z,101350.27
2023-05-10T23:35:57.882Z,101349.73
2023-05-10T23:38:26.911Z,101348.11
2023-05-10T23:40:55.426Z,101347.77
2023-05-10T23:43:23.490Z,101350.27
2023-05-10T23:45:56.958Z,101349.01
2023-05-10T23:48:25.133Z,101343.81
2023-05-10T23:50:53.406Z,101339.13
2023-05-10T23:53:21.534Z,101334.64
2023-05-10T23:55:49.991Z,101335.70
2023-05-10T23:58:18.553Z,101334.61
